sensor_id;sensor_type;location;lat;lon;timestamp;P1;P2;P0
49644;PMS5003;36494;50.730;-1.932;2023-05-10T00:01:43;12;10;
49644;PMS5003;36494;50.730;-1.932;2023-05-10T00:04:08;9;9;
49644;PMS5003;36494;50.730;-1.932;2023-05-10T00:06:34;6;5;
49644;PMS5003;36494;50.730;-1.932;2023-05-10T00:08:59;7;6;
49644;PMS5003;36494;50.730;-1.932;2023-05-10T00:11:24;7;7;
49644;PMS5003;36494;50.730;-1.932;2023-05-10T00:13:50;4;4;
49644;PMS5003;36494;50.730;-1.932;2023-05-10T00:16:16;12;11;
49644;PMS5003;36494;50.730;-1.932;2023-05-10T00:18:41;7;7;
49644;PMS5003;36494;50.730;-1.932;2023-05-10T00:21:07;7;7;
49644;PMS5003;36494;50.730;-1.932;2023-05-10T00:23:32;7;6;
49644;PMS5003;36494;50.730;-1.932;2023-05-10T00:25:58;4;4;
49644;PMS5003;36494;50.730;-1.932;2023-05-10T00:28:24;6;5;
49644;PMS5003;36494;50.730;-1.932;2023-05-10T00:30:49;6;5;
49644;PMS5003;36494;50.730;-1.932;2023-05-10T00:33:15;5;5;
49644;PMS5003;36494;50.730;-1.932;2023-05-10T00:35:40;4;4;
49644;PMS5003;36494;50.730;-1.932;2023-05-10T00:38:05;5;5;
49644;PMS5003;36494;50.730;-1.932;2023-05-10T00:40:31;5;4;
49644;PMS5003;36494;50.730;-1.932;2023-05-10T00:42:57;5;3;
49644;PMS5003;36494;50.730;-1.932;2023-05-10T00:45:22;5;4;
49644;PMS5003;36494;50.730;-1.932;2023-05-10T00:47:47;3;3;
49644;PMS5003;36494;50.730;-1.932;2023-05-10T00:50:13;2;2;
49644;PMS5003;36494;50.730;-1.932;2023-05-10T00:52:38;6;5;
49644;PMS5003;36494;50.730;-1.932;2023-05-10T00:55:04;4;4;
49644;PMS5003;36494;50.730;-1.932;2023-05-10T00:57:30;6;5;
49644;PMS5003;36494;50.730;-1.932;2023-05-10T00:59:55;4;4;
49644;PMS5003;36494;50.730;-1.932;2023-05-10T01:02:21;4;4;
49644;PMS5003;36494;50.730;-1.932;2023-05-10T01:04:47;7;7;
49644;PMS5003;36494;50.730;-1.932;2023-05-10T01:07:12;4;4;
49644;PMS5003;36494;50.730;-1.932;2023-05-10T01:09:38;3;3;
49644;PMS5003;36494;50.730;-1.932;2023-05-10T01:12:03;2;2;
49644;PMS5003;36494;50.730;-1.932;2023-05-10T01:14:28;4;3;
49644;PMS5003;36494;50.730;-1.932;2023-05-10T01:16:54;3;3;
49644;PMS5003;36494;50.730;-1.932;2023-05-10T01:19:21;3;3;
49644;PMS5003;36494;50.730;-1.932;2023-05-10T01:21:47;4;4;
49644;PMS5003;36494;50.730;-1.932;2023-05-10T01:29:07;6;4;
49644;PMS5003;36494;50.730;-1.932;2023-05-10T01:31:30;2;2;
49644;PMS5003;36494;50.730;-1.932;2023-05-10T01:33:52;4;4;
49644;PMS5003;36494;50.730;-1.932;2023-05-10T01:36:19;4;3;
49644;PMS5003;36494;50.730;-1.932;2023-05-10T01:38:42;4;4;
49644;PMS5003;36494;50.730;-1.932;2023-05-10T01:41:11;3;3;
49644;PMS5003;36494;50.730;-1.932;2023-05-10T01:43:33;6;5;
49644;PMS5003;36494;50.730;-1.932;2023-05-10T01:45:59;5;5;
49644;PMS5003;36494;50.730;-1.932;2023-05-10T01:48:23;3;3;
49644;PMS5003;36494;50.730;-1.932;2023-05-10T01:50:48;2;2;
49644;PMS5003;36494;50.730;-1.932;2023-05-10T01:53:14;6;6;
49644;PMS5003;36494;50.730;-1.932;2023-05-10T01:55:41;4;4;
49644;PMS5003;36494;50.730;-1.932;2023-05-10T01:58:07;3;3;
49644;PMS5003;36494;50.730;-1.932;2023-05-10T02:00:29;3;2;
49644;PMS5003;36494;50.730;-1.932;2023-05-10T02:02:55;3;3;
49644;PMS5003;36494;50.730;-1.932;2023-05-10T02:05:20;7;6;
49644;PMS5003;36494;50.730;-1.932;2023-05-10T02:07:45;4;4;
49644;PMS5003;36494;50.730;-1.932;2023-05-10T02:10:11;3;3;
49644;PMS5003;36494;50.730;-1.932;2023-05-10T02:12:36;8;5;
49644;PMS5003;36494;50.730;-1.932;2023-05-10T02:15:02;3;3;
49644;PMS5003;36494;50.730;-1.932;2023-05-10T02:17:26;5;5;
49644;PMS5003;36494;50.730;-1.932;2023-05-10T02:19:52;3;3;
49644;PMS5003;36494;50.730;-1.932;2023-05-10T02:22:17;4;3;
49644;PMS5003;36494;50.730;-1.932;2023-05-10T02:24:42;5;3;
49644;PMS5003;36494;50.730;-1.932;2023-05-10T02:27:07;4;3;
49644;PMS5003;36494;50.730;-1.932;2023-05-10T02:29:33;5;4;
49644;PMS5003;36494;50.730;-1.932;2023-05-10T02:31:58;6;4;
49644;PMS5003;36494;50.730;-1.932;2023-05-10T02:34:24;3;3;
49644;PMS5003;36494;50.730;-1.932;2023-05-10T02:36:49;2;2;
49644;PMS5003;36494;50.730;-1.932;2023-05-10T02:39:14;8;7;
49644;PMS5003;36494;50.730;-1.932;2023-05-10T02:41:39;4;4;
49644;PMS5003;36494;50.730;-1.932;2023-05-10T02:44:05;4;4;
49644;PMS5003;36494;50.730;-1.932;2023-05-10T02:46:30;5;4;
49644;PMS5003;36494;50.730;-1.932;2023-05-10T02:48:55;4;4;
49644;PMS5003;36494;50.730;-1.932;2023-05-10T02:51:21;4;3;
49644;PMS5003;36494;50.730;-1.932;2023-05-10T02:53:46;6;6;
49644;PMS5003;36494;50.730;-1.932;2023-05-10T02:56:12;4;4;
49644;PMS5003;36494;50.730;-1.932;2023-05-10T02:58:37;6;4;
49644;PMS5003;36494;50.730;-1.932;2023-05-10T03:01:02;9;8;
49644;PMS5003;36494;50.730;-1.932;2023-05-10T03:03:27;8;7;
49644;PMS5003;36494;50.730;-1.932;2023-05-10T03:05:52;5;4;
49644;PMS5003;36494;50.730;-1.932;2023-05-10T03:08:18;4;3;
49644;PMS5003;36494;50.730;-1.932;2023-05-10T03:10:45;4;4;
49644;PMS5003;36494;50.730;-1.932;2023-05-10T03:13:11;5;5;
49644;PMS5003;36494;50.730;-1.932;2023-05-10T03:15:36;5;5;
49644;PMS5003;36494;50.730;-1.932;2023-05-10T03:18:01;6;6;
49644;PMS5003;36494;50.730;-1.932;2023-05-10T03:20:24;3;3;
49644;PMS5003;36494;50.730;-1.932;2023-05-10T03:22:51;4;4;
49644;PMS5003;36494;50.730;-1.932;2023-05-10T03:25:15;8;7;
49644;PMS5003;36494;50.730;-1.932;2023-05-10T03:27:41;8;8;
49644;PMS5003;36494;50.730;-1.932;2023-05-10T03:30:07;5;4;
49644;PMS5003;36494;50.730;-1.932;2023-05-10T03:32:30;5;5;
49644;PMS5003;36494;50.730;-1.932;2023-05-10T03:34:56;4;4;
49644;PMS5003;36494;50.730;-1.932;2023-05-10T03:37:21;5;4;
49644;PMS5003;36494;50.730;-1.932;2023-05-10T03:39:46;5;5;
49644;PMS5003;36494;50.730;-1.932;2023-05-10T03:42:11;5;5;
49644;PMS5003;36494;50.730;-1.932;2023-05-10T03:44:36;3;3;
49644;PMS5003;36494;50.730;-1.932;2023-05-10T03:47:02;6;6;
49644;PMS5003;36494;50.730;-1.932;2023-05-10T03:49:27;9;6;
49644;PMS5003;36494;50.730;-1.932;2023-05-10T03:51:52;5;5;
49644;PMS5003;36494;50.730;-1.932;2023-05-10T03:54:18;4;4;
49644;PMS5003;36494;50.730;-1.932;2023-05-10T03:56:43;8;6;
49644;PMS5003;36494;50.730;-1.932;2023-05-10T03:59:08;6;5;
49644;PMS5003;36494;50.730;-1.932;2023-05-10T04:01:33;7;7;
49644;PMS5003;36494;50.730;-1.932;2023-05-10T04:03:59;9;8;
49644;PMS5003;36494;50.730;-1.932;2023-05-10T04:06:24;6;5;
49644;PMS5003;36494;50.730;-1.932;2023-05-10T04:08:49;7;7;
49644;PMS5003;36494;50.730;-1.932;2023-05-10T04:11:14;5;5;
49644;PMS5003;36494;50.730;-1.932;2023-05-10T04:13:40;6;6;
49644;PMS5003;36494;50.730;-1.932;2023-05-10T04:16:05;9;8;
49644;PMS5003;36494;50.730;-1.932;2023-05-10T04:18:30;7;6;
49644;PMS5003;36494;50.730;-1.932;2023-05-10T04:20:56;7;7;
49644;PMS5003;36494;50.730;-1.932;2023-05-10T04:23:21;6;5;
49644;PMS5003;36494;50.730;-1.932;2023-05-10T04:25:46;5;4;
49644;PMS5003;36494;50.730;-1.932;2023-05-10T04:28:12;4;3;
49644;PMS5003;36494;50.730;-1.932;2023-05-10T04:30:37;6;6;
49644;PMS5003;36494;50.730;-1.932;2023-05-10T04:33:02;8;8;
49644;PMS5003;36494;50.730;-1.932;2023-05-10T04:35:28;8;6;
49644;PMS5003;36494;50.730;-1.932;2023-05-10T04:37:54;4;4;
49644;PMS5003;36494;50.730;-1.932;2023-05-10T04:40:19;10;8;
49644;PMS5003;36494;50.730;-1.932;2023-05-10T04:42:44;8;8;
49644;PMS5003;36494;50.730;-1.932;2023-05-10T04:45:09;8;8;
49644;PMS5003;36494;50.730;-1.932;2023-05-10T04:47:35;7;6;
49644;PMS5003;36494;50.730;-1.932;2023-05-10T04:50:00;7;7;
49644;PMS5003;36494;50.730;-1.932;2023-05-10T04:52:25;10;10;
49644;PMS5003;36494;50.730;-1.932;2023-05-10T04:54:50;10;9;
49644;PMS5003;36494;50.730;-1.932;2023-05-10T04:57:16;7;6;
49644;PMS5003;36494;50.730;-1.932;2023-05-10T04:59:41;10;9;
49644;PMS5003;36494;50.730;-1.932;2023-05-10T05:02:06;8;8;
49644;PMS5003;36494;50.730;-1.932;2023-05-10T05:04:32;9;8;
49644;PMS5003;36494;50.730;-1.932;2023-05-10T05:06:57;8;7;
49644;PMS5003;36494;50.730;-1.932;2023-05-10T05:09:22;8;6;
49644;PMS5003;36494;50.730;-1.932;2023-05-10T05:11:47;7;6;
49644;PMS5003;36494;50.730;-1.932;2023-05-10T05:14:13;8;8;
49644;PMS5003;36494;50.730;-1.932;2023-05-10T05:16:38;9;6;
49644;PMS5003;36494;50.730;-1.932;2023-05-10T05:19:03;12;9;
49644;PMS5003;36494;50.730;-1.932;2023-05-10T05:21:28;8;7;
49644;PMS5003;36494;50.730;-1.932;2023-05-10T05:23:54;5;4;
49644;PMS5003;36494;50.730;-1.932;2023-05-10T05:26:19;7;6;
49644;PMS5003;36494;50.730;-1.932;2023-05-10T05:28:44;6;6;
49644;PMS5003;36494;50.730;-1.932;2023-05-10T05:31:09;5;4;
49644;PMS5003;36494;50.730;-1.932;2023-05-10T05:33:34;6;6;
49644;PMS5003;36494;50.730;-1.932;2023-05-10T05:36:00;9;7;
49644;PMS5003;36494;50.730;-1.932;2023-05-10T05:38:25;9;8;
49644;PMS5003;36494;50.730;-1.932;2023-05-10T05:40:50;7;7;
49644;PMS5003;36494;50.730;-1.932;2023-05-10T05:43:16;10;7;
49644;PMS5003;36494;50.730;-1.932;2023-05-10T05:45:41;10;9;
49644;PMS5003;36494;50.730;-1.932;2023-05-10T05:48:07;9;8;
49644;PMS5003;36494;50.730;-1.932;2023-05-10T05:50:32;11;11;
49644;PMS5003;36494;50.730;-1.932;2023-05-10T05:52:57;11;9;
49644;PMS5003;36494;50.730;-1.932;2023-05-10T05:55:22;8;8;
49644;PMS5003;36494;50.730;-1.932;2023-05-10T05:57:47;8;7;
49644;PMS5003;36494;50.730;-1.932;2023-05-10T06:00:13;10;8;
49644;PMS5003;36494;50.730;-1.932;2023-05-10T06:02:38;9;9;
49644;PMS5003;36494;50.730;-1.932;2023-05-10T06:05:03;11;10;
49644;PMS5003;36494;50.730;-1.932;2023-05-10T06:07:29;9;9;
49644;PMS5003;36494;50.730;-1.932;2023-05-10T06:09:54;9;7;
49644;PMS5003;36494;50.730;-1.932;2023-05-10T06:12:19;10;9;
49644;PMS5003;36494;50.730;-1.932;2023-05-10T06:14:44;9;8;
49644;PMS5003;36494;50.730;-1.932;2023-05-10T06:17:10;10;9;
49644;PMS5003;36494;50.730;-1.932;2023-05-10T06:19:36;7;7;
49644;PMS5003;36494;50.730;-1.932;2023-05-10T06:22:02;7;7;
49644;PMS5003;36494;50.730;-1.932;2023-05-10T06:24:27;6;6;
49644;PMS5003;36494;50.730;-1.932;2023-05-10T06:26:52;5;4;
49644;PMS5003;36494;50.730;-1.932;2023-05-10T06:29:18;7;6;
49644;PMS5003;36494;50.730;-1.932;2023-05-10T06:31:43;15;13;
49644;PMS5003;36494;50.730;-1.932;2023-05-10T06:34:09;6;6;
49644;PMS5003;36494;50.730;-1.932;2023-05-10T06:36:34;9;8;
49644;PMS5003;36494;50.730;-1.932;2023-05-10T06:39:00;8;8;
49644;PMS5003;36494;50.730;-1.932;2023-05-10T06:41:25;11;8;
49644;PMS5003;36494;50.730;-1.932;2023-05-10T06:43:50;7;6;
49644;PMS5003;36494;50.730;-1.932;2023-05-10T06:46:16;5;5;
49644;PMS5003;36494;50.730;-1.932;2023-05-10T06:48:41;7;7;
49644;PMS5003;36494;50.730;-1.932;2023-05-10T06:51:06;7;5;
49644;PMS5003;36494;50.730;-1.932;2023-05-10T06:53:31;8;8;
49644;PMS5003;36494;50.730;-1.932;2023-05-10T06:55:57;6;5;
49644;PMS5003;36494;50.730;-1.932;2023-05-10T06:58:22;6;5;
49644;PMS5003;36494;50.730;-1.932;2023-05-10T07:00:47;5;5;
49644;PMS5003;36494;50.730;-1.932;2023-05-10T07:03:13;4;3;
49644;PMS5003;36494;50.730;-1.932;2023-05-10T07:05:38;7;6;
49644;PMS5003;36494;50.730;-1.932;2023-05-10T07:08:03;6;6;
49644;PMS5003;36494;50.730;-1.932;2023-05-10T07:10:29;11;8;
49644;PMS5003;36494;50.730;-1.932;2023-05-10T07:12:54;8;7;
49644;PMS5003;36494;50.730;-1.932;2023-05-10T07:15:19;7;6;
49644;PMS5003;36494;50.730;-1.932;2023-05-10T07:17:45;5;5;
49644;PMS5003;36494;50.730;-1.932;2023-05-10T07:20:11;8;6;
49644;PMS5003;36494;50.730;-1.932;2023-05-10T07:22:36;5;5;
49644;PMS5003;36494;50.730;-1.932;2023-05-10T07:25:01;9;9;
49644;PMS5003;36494;50.730;-1.932;2023-05-10T07:27:26;7;7;
49644;PMS5003;36494;50.730;-1.932;2023-05-10T07:29:52;5;5;
49644;PMS5003;36494;50.730;-1.932;2023-05-10T07:32:17;6;6;
49644;PMS5003;36494;50.730;-1.932;2023-05-10T07:34:42;4;4;
49644;PMS5003;36494;50.730;-1.932;2023-05-10T07:37:08;6;5;
49644;PMS5003;36494;50.730;-1.932;2023-05-10T07:39:33;5;5;
49644;PMS5003;36494;50.730;-1.932;2023-05-10T07:41:58;8;7;
49644;PMS5003;36494;50.730;-1.932;2023-05-10T07:44:24;5;4;
49644;PMS5003;36494;50.730;-1.932;2023-05-10T07:46:50;3;3;
49644;PMS5003;36494;50.730;-1.932;2023-05-10T07:49:15;6;5;
49644;PMS5003;36494;50.730;-1.932;2023-05-10T07:51:40;4;4;
49644;PMS5003;36494;50.730;-1.932;2023-05-10T07:54:05;5;4;
49644;PMS5003;36494;50.730;-1.932;2023-05-10T07:56:32;6;6;
49644;PMS5003;36494;50.730;-1.932;2023-05-10T07:58:57;4;3;
49644;PMS5003;36494;50.730;-1.932;2023-05-10T08:01:23;2;2;
49644;PMS5003;36494;50.730;-1.932;2023-05-10T08:03:48;6;4;
49644;PMS5003;36494;50.730;-1.932;2023-05-10T08:06:14;4;3;
49644;PMS5003;36494;50.730;-1.932;2023-05-10T08:08:39;3;3;
49644;PMS5003;36494;50.730;-1.932;2023-05-10T08:11:04;5;4;
49644;PMS5003;36494;50.730;-1.932;2023-05-10T08:13:29;5;4;
49644;PMS5003;36494;50.730;-1.932;2023-05-10T08:15:55;3;3;
49644;PMS5003;36494;50.730;-1.932;2023-05-10T08:18:21;6;6;
49644;PMS5003;36494;50.730;-1.932;2023-05-10T08:20:46;3;3;
49644;PMS5003;36494;50.730;-1.932;2023-05-10T08:23:12;1;1;
49644;PMS5003;36494;50.730;-1.932;2023-05-10T08:25:36;4;4;
49644;PMS5003;36494;50.730;-1.932;2023-05-10T08:28:02;3;3;
49644;PMS5003;36494;50.730;-1.932;2023-05-10T08:30:27;3;3;
49644;PMS5003;36494;50.730;-1.932;2023-05-10T08:32:53;2;1;
49644;PMS5003;36494;50.730;-1.932;2023-05-10T08:35:18;3;2;
49644;PMS5003;36494;50.730;-1.932;2023-05-10T08:37:43;2;2;
49644;PMS5003;36494;50.730;-1.932;2023-05-10T08:40:09;1;1;
49644;PMS5003;36494;50.730;-1.932;2023-05-10T08:42:35;3;2;
49644;PMS5003;36494;50.730;-1.932;2023-05-10T08:45:00;2;2;
49644;PMS5003;36494;50.730;-1.932;2023-05-10T08:47:25;3;3;
49644;PMS5003;36494;50.730;-1.932;2023-05-10T08:49:50;1;0;
49644;PMS5003;36494;50.730;-1.932;2023-05-10T08:52:16;2;2;
49644;PMS5003;36494;50.730;-1.932;2023-05-10T08:54:41;3;2;
49644;PMS5003;36494;50.730;-1.932;2023-05-10T08:57:06;2;2;
49644;PMS5003;36494;50.730;-1.932;2023-05-10T08:59:32;4;3;
49644;PMS5003;36494;50.730;-1.932;2023-05-10T09:01:57;2;2;
49644;PMS5003;36494;50.730;-1.932;2023-05-10T09:04:22;3;3;
49644;PMS5003;36494;50.730;-1.932;2023-05-10T09:06:47;1;1;
49644;PMS5003;36494;50.730;-1.932;2023-05-10T09:09:13;4;3;
49644;PMS5003;36494;50.730;-1.932;2023-05-10T09:11:39;6;4;
49644;PMS5003;36494;50.730;-1.932;2023-05-10T09:14:04;2;2;
49644;PMS5003;36494;50.730;-1.932;2023-05-10T09:16:29;2;2;
49644;PMS5003;36494;50.730;-1.932;2023-05-10T09:18:54;2;2;
49644;PMS5003;36494;50.730;-1.932;2023-05-10T09:21:20;2;1;
49644;PMS5003;36494;50.730;-1.932;2023-05-10T09:23:45;1;1;
49644;PMS5003;36494;50.730;-1.932;2023-05-10T09:26:10;1;1;
49644;PMS5003;36494;50.730;-1.932;2023-05-10T09:28:50;2;2;
49644;PMS5003;36494;50.730;-1.932;2023-05-10T09:31:01;1;1;
49644;PMS5003;36494;50.730;-1.932;2023-05-10T09:33:27;4;3;
49644;PMS5003;36494;50.730;-1.932;2023-05-10T09:35:52;2;1;
49644;PMS5003;36494;50.730;-1.932;2023-05-10T09:38:17;3;3;
49644;PMS5003;36494;50.730;-1.932;2023-05-10T09:40:42;1;1;
49644;PMS5003;36494;50.730;-1.932;2023-05-10T09:43:08;2;2;
49644;PMS5003;36494;50.730;-1.932;2023-05-10T09:45:33;2;2;
49644;PMS5003;36494;50.730;-1.932;2023-05-10T09:47:59;3;3;
49644;PMS5003;36494;50.730;-1.932;2023-05-10T09:50:24;3;2;
49644;PMS5003;36494;50.730;-1.932;2023-05-10T09:52:49;2;2;
49644;PMS5003;36494;50.730;-1.932;2023-05-10T09:55:14;5;5;
49644;PMS5003;36494;50.730;-1.932;2023-05-10T09:57:39;3;2;
49644;PMS5003;36494;50.730;-1.932;2023-05-10T10:00:05;4;3;
49644;PMS5003;36494;50.730;-1.932;2023-05-10T10:02:30;4;4;
49644;PMS5003;36494;50.730;-1.932;2023-05-10T10:04:55;2;2;
49644;PMS5003;36494;50.730;-1.932;2023-05-10T10:07:22;4;3;
49644;PMS5003;36494;50.730;-1.932;2023-05-10T10:09:46;3;3;
49644;PMS5003;36494;50.730;-1.932;2023-05-10T10:12:12;3;1;
49644;PMS5003;36494;50.730;-1.932;2023-05-10T10:14:37;3;3;
49644;PMS5003;36494;50.730;-1.932;2023-05-10T10:17:02;3;2;
49644;PMS5003;36494;50.730;-1.932;2023-05-10T10:19:27;2;1;
49644;PMS5003;36494;50.730;-1.932;2023-05-10T10:21:53;1;1;
49644;PMS5003;36494;50.730;-1.932;2023-05-10T10:24:18;1;1;
49644;PMS5003;36494;50.730;-1.932;2023-05-10T10:26:44;4;4;
49644;PMS5003;36494;50.730;-1.932;2023-05-10T10:29:13;1;1;
49644;PMS5003;36494;50.730;-1.932;2023-05-10T10:31:36;3;3;
49644;PMS5003;36494;50.730;-1.932;2023-05-10T10:34:01;1;1;
49644;PMS5003;36494;50.730;-1.932;2023-05-10T10:36:26;1;1;
49644;PMS5003;36494;50.730;-1.932;2023-05-10T10:38:55;1;1;
49644;PMS5003;36494;50.730;-1.932;2023-05-10T10:43:42;3;3;
49644;PMS5003;36494;50.730;-1.932;2023-05-10T10:46:09;3;3;
49644;PMS5003;36494;50.730;-1.932;2023-05-10T10:48:33;0;0;
49644;PMS5003;36494;50.730;-1.932;2023-05-10T10:50:58;3;3;
49644;PMS5003;36494;50.730;-1.932;2023-05-10T10:53:25;3;3;
49644;PMS5003;36494;50.730;-1.932;2023-05-10T10:55:48;2;1;
49644;PMS5003;36494;50.730;-1.932;2023-05-10T11:00:39;2;2;
49644;PMS5003;36494;50.730;-1.932;2023-05-10T11:03:05;3;2;
49644;PMS5003;36494;50.730;-1.932;2023-05-10T11:07:55;2;2;
49644;PMS5003;36494;50.730;-1.932;2023-05-10T11:10:20;4;3;
49644;PMS5003;36494;50.730;-1.932;2023-05-10T11:12:51;3;3;
49644;PMS5003;36494;50.730;-1.932;2023-05-10T11:15:10;2;1;
49644;PMS5003;36494;50.730;-1.932;2023-05-10T11:17:36;2;2;
49644;PMS5003;36494;50.730;-1.932;2023-05-10T11:20:03;2;2;
49644;PMS5003;36494;50.730;-1.932;2023-05-10T11:22:26;2;2;
49644;PMS5003;36494;50.730;-1.932;2023-05-10T11:24:56;1;1;
49644;PMS5003;36494;50.730;-1.932;2023-05-10T11:27:17;4;4;
49644;PMS5003;36494;50.730;-1.932;2023-05-10T11:29:42;4;3;
49644;PMS5003;36494;50.730;-1.932;2023-05-10T11:32:07;4;4;
49644;PMS5003;36494;50.730;-1.932;2023-05-10T11:34:33;9;8;
49644;PMS5003;36494;50.730;-1.932;2023-05-10T11:36:59;5;4;
49644;PMS5003;36494;50.730;-1.932;2023-05-10T11:39:25;3;3;
49644;PMS5003;36494;50.730;-1.932;2023-05-10T11:41:49;4;4;
49644;PMS5003;36494;50.730;-1.932;2023-05-10T11:44:14;3;3;
49644;PMS5003;36494;50.730;-1.932;2023-05-10T11:46:39;4;4;
49644;PMS5003;36494;50.730;-1.932;2023-05-10T11:49:05;4;4;
49644;PMS5003;36494;50.730;-1.932;2023-05-10T11:51:32;3;3;
49644;PMS5003;36494;50.730;-1.932;2023-05-10T11:53:55;4;4;
49644;PMS5003;36494;50.730;-1.932;2023-05-10T11:56:20;4;3;
49644;PMS5003;36494;50.730;-1.932;2023-05-10T11:58:51;7;6;
49644;PMS5003;36494;50.730;-1.932;2023-05-10T12:01:11;7;6;
49644;PMS5003;36494;50.730;-1.932;2023-05-10T12:03:36;3;3;
49644;PMS5003;36494;50.730;-1.932;2023-05-10T12:06:01;3;3;
49644;PMS5003;36494;50.730;-1.932;2023-05-10T12:08:28;4;4;
49644;PMS5003;36494;50.730;-1.932;2023-05-10T12:10:53;4;3;
49644;PMS5003;36494;50.730;-1.932;2023-05-10T12:13:18;2;2;
49644;PMS5003;36494;50.730;-1.932;2023-05-10T12:15:43;6;4;
49644;PMS5003;36494;50.730;-1.932;2023-05-10T12:18:09;5;5;
49644;PMS5003;36494;50.730;-1.932;2023-05-10T12:20:33;8;6;
49644;PMS5003;36494;50.730;-1.932;2023-05-10T12:22:59;5;5;
49644;PMS5003;36494;50.730;-1.932;2023-05-10T12:25:29;5;4;
49644;PMS5003;36494;50.730;-1.932;2023-05-10T12:27:51;4;3;
49644;PMS5003;36494;50.730;-1.932;2023-05-10T12:30:18;6;4;
49644;PMS5003;36494;50.730;-1.932;2023-05-10T12:32:41;4;4;
49644;PMS5003;36494;50.730;-1.932;2023-05-10T12:35:06;4;3;
49644;PMS5003;36494;50.730;-1.932;2023-05-10T12:37:31;7;5;
49644;PMS5003;36494;50.730;-1.932;2023-05-10T12:39:56;2;2;
49644;PMS5003;36494;50.730;-1.932;2023-05-10T12:42:21;3;2;
49644;PMS5003;36494;50.730;-1.932;2023-05-10T12:44:47;4;3;
49644;PMS5003;36494;50.730;-1.932;2023-05-10T12:47:12;2;2;
49644;PMS5003;36494;50.730;-1.932;2023-05-10T12:49:37;3;3;
49644;PMS5003;36494;50.730;-1.932;2023-05-10T12:52:03;3;3;
49644;PMS5003;36494;50.730;-1.932;2023-05-10T12:54:28;2;2;
49644;PMS5003;36494;50.730;-1.932;2023-05-10T12:56:53;1;1;
49644;PMS5003;36494;50.730;-1.932;2023-05-10T12:59:19;4;3;
49644;PMS5003;36494;50.730;-1.932;2023-05-10T13:01:44;2;2;
49644;PMS5003;36494;50.730;-1.932;2023-05-10T13:04:09;1;1;
49644;PMS5003;36494;50.730;-1.932;2023-05-10T13:06:35;4;4;
49644;PMS5003;36494;50.730;-1.932;2023-05-10T13:09:00;5;5;
49644;PMS5003;36494;50.730;-1.932;2023-05-10T13:11:26;3;3;
49644;PMS5003;36494;50.730;-1.932;2023-05-10T13:13:51;3;3;
49644;PMS5003;36494;50.730;-1.932;2023-05-10T13:16:16;3;3;
49644;PMS5003;36494;50.730;-1.932;2023-05-10T13:18:42;2;2;
49644;PMS5003;36494;50.730;-1.932;2023-05-10T13:21:07;5;4;
49644;PMS5003;36494;50.730;-1.932;2023-05-10T13:23:32;4;4;
49644;PMS5003;36494;50.730;-1.932;2023-05-10T13:25:58;3;3;
49644;PMS5003;36494;50.730;-1.932;2023-05-10T13:28:23;3;3;
49644;PMS5003;36494;50.730;-1.932;2023-05-10T13:30:49;4;4;
49644;PMS5003;36494;50.730;-1.932;2023-05-10T13:33:14;2;2;
49644;PMS5003;36494;50.730;-1.932;2023-05-10T13:35:39;3;3;
49644;PMS5003;36494;50.730;-1.932;2023-05-10T13:38:05;4;4;
49644;PMS5003;36494;50.730;-1.932;2023-05-10T13:40:30;3;3;
49644;PMS5003;36494;50.730;-1.932;2023-05-10T13:42:55;5;4;
49644;PMS5003;36494;50.730;-1.932;2023-05-10T13:45:21;4;4;
49644;PMS5003;36494;50.730;-1.932;2023-05-10T13:47:46;4;4;
49644;PMS5003;36494;50.730;-1.932;2023-05-10T13:50:11;3;3;
49644;PMS5003;36494;50.730;-1.932;2023-05-10T13:52:36;1;1;
49644;PMS5003;36494;50.730;-1.932;2023-05-10T13:55:02;2;2;
49644;PMS5003;36494;50.730;-1.932;2023-05-10T13:57:28;1;1;
49644;PMS5003;36494;50.730;-1.932;2023-05-10T13:59:53;2;2;
49644;PMS5003;36494;50.730;-1.932;2023-05-10T14:02:19;1;1;
49644;PMS5003;36494;50.730;-1.932;2023-05-10T14:04:44;1;1;
49644;PMS5003;36494;50.730;-1.932;2023-05-10T14:07:09;1;1;
49644;PMS5003;36494;50.730;-1.932;2023-05-10T14:09:35;3;2;
49644;PMS5003;36494;50.730;-1.932;2023-05-10T14:12:00;4;4;
49644;PMS5003;36494;50.730;-1.932;2023-05-10T14:14:26;2;2;
49644;PMS5003;36494;50.730;-1.932;2023-05-10T14:16:51;2;2;
49644;PMS5003;36494;50.730;-1.932;2023-05-10T14:19:17;3;2;
49644;PMS5003;36494;50.730;-1.932;2023-05-10T14:21:42;1;1;
49644;PMS5003;36494;50.730;-1.932;2023-05-10T14:24:07;2;2;
49644;PMS5003;36494;50.730;-1.932;2023-05-10T14:26:32;3;3;
49644;PMS5003;36494;50.730;-1.932;2023-05-10T14:28:58;2;2;
49644;PMS5003;36494;50.730;-1.932;2023-05-10T14:31:23;5;5;
49644;PMS5003;36494;50.730;-1.932;2023-05-10T14:33:49;4;4;
49644;PMS5003;36494;50.730;-1.932;2023-05-10T14:36:14;5;5;
49644;PMS5003;36494;50.730;-1.932;2023-05-10T14:38:39;5;4;
49644;PMS5003;36494;50.730;-1.932;2023-05-10T14:41:05;3;2;
49644;PMS5003;36494;50.730;-1.932;2023-05-10T14:43:30;3;3;
49644;PMS5003;36494;50.730;-1.932;2023-05-10T14:45:55;4;4;
49644;PMS5003;36494;50.730;-1.932;2023-05-10T14:48:21;2;2;
49644;PMS5003;36494;50.730;-1.932;2023-05-10T14:50:47;3;3;
49644;PMS5003;36494;50.730;-1.932;2023-05-10T14:53:12;3;2;
49644;PMS5003;36494;50.730;-1.932;2023-05-10T14:55:37;5;3;
49644;PMS5003;36494;50.730;-1.932;2023-05-10T14:58:03;3;3;
49644;PMS5003;36494;50.730;-1.932;2023-05-10T15:00:28;2;2;
49644;PMS5003;36494;50.730;-1.932;2023-05-10T15:02:53;2;2;
49644;PMS5003;36494;50.730;-1.932;2023-05-10T15:05:18;3;3;
49644;PMS5003;36494;50.730;-1.932;2023-05-10T15:07:44;5;5;
49644;PMS5003;36494;50.730;-1.932;2023-05-10T15:10:10;4;3;
49644;PMS5003;36494;50.730;-1.932;2023-05-10T15:12:35;6;5;
49644;PMS5003;36494;50.730;-1.932;2023-05-10T15:15:01;4;3;
49644;PMS5003;36494;50.730;-1.932;2023-05-10T15:17:26;3;2;
49644;PMS5003;36494;50.730;-1.932;2023-05-10T15:19:51;3;3;
49644;PMS5003;36494;50.730;-1.932;2023-05-10T15:22:16;3;3;
49644;PMS5003;36494;50.730;-1.932;2023-05-10T15:24:41;3;3;
49644;PMS5003;36494;50.730;-1.932;2023-05-10T15:27:07;2;2;
49644;PMS5003;36494;50.730;-1.932;2023-05-10T15:29:32;2;2;
49644;PMS5003;36494;50.730;-1.932;2023-05-10T15:31:57;2;2;
49644;PMS5003;36494;50.730;-1.932;2023-05-10T15:34:23;3;2;
49644;PMS5003;36494;50.730;-1.932;2023-05-10T15:36:48;3;3;
49644;PMS5003;36494;50.730;-1.932;2023-05-10T15:39:13;4;3;
49644;PMS5003;36494;50.730;-1.932;2023-05-10T15:41:38;3;3;
49644;PMS5003;36494;50.730;-1.932;2023-05-10T15:44:04;2;2;
49644;PMS5003;36494;50.730;-1.932;2023-05-10T15:46:30;3;3;
49644;PMS5003;36494;50.730;-1.932;2023-05-10T15:48:55;2;2;
49644;PMS5003;36494;50.730;-1.932;2023-05-10T15:51:20;4;4;
49644;PMS5003;36494;50.730;-1.932;2023-05-10T15:53:45;2;2;
49644;PMS5003;36494;50.730;-1.932;2023-05-10T15:56:11;2;2;
49644;PMS5003;36494;50.730;-1.932;2023-05-10T16:01:01;2;2;
49644;PMS5003;36494;50.730;-1.932;2023-05-10T16:03:27;3;3;
49644;PMS5003;36494;50.730;-1.932;2023-05-10T16:05:52;2;2;
49644;PMS5003;36494;50.730;-1.932;2023-05-10T16:08:18;2;2;
49644;PMS5003;36494;50.730;-1.932;2023-05-10T16:10:43;1;1;
49644;PMS5003;36494;50.730;-1.932;2023-05-10T16:13:08;2;2;
49644;PMS5003;36494;50.730;-1.932;2023-05-10T16:15:33;1;1;
49644;PMS5003;36494;50.730;-1.932;2023-05-10T16:17:59;1;1;
49644;PMS5003;36494;50.730;-1.932;2023-05-10T16:20:24;2;2;
49644;PMS5003;36494;50.730;-1.932;2023-05-10T16:22:49;1;1;
49644;PMS5003;36494;50.730;-1.932;2023-05-10T16:25:15;4;3;
49644;PMS5003;36494;50.730;-1.932;2023-05-10T16:27:40;1;1;
49644;PMS5003;36494;50.730;-1.932;2023-05-10T16:30:05;1;1;
49644;PMS5003;36494;50.730;-1.932;2023-05-10T16:32:30;2;2;
49644;PMS5003;36494;50.730;-1.932;2023-05-10T16:34:55;2;2;